Time;durP1;ratioP1;P1;durP2;ratioP2;P2;SDS_P1;SDS_P2;PMS_P1;PMS_P2;Temp;Humidity;BMP_temperature;BMP_pressure;BME280_temperature;BME280_humidity;BME280_pressure;Samples;Min_cycle;Max_cycle;Signal;HPM_P1;HPM_P2
2022/11/27 00:01:45;;;;;;;199.10;142.52;;;20.40;49.20;;;;;;4914261;55;21554;-36
2022/11/27 00:06:46;;;;;;;196.77;142.45;;;20.40;49.30;;;;;;4742317;55;21012;-43
2022/11/27 00:11:47;;;;;;;198.20;141.37;;;20.40;49.30;;;;;;4725562;55;21036;-38
2022/11/27 00:16:48;;;;;;;198.73;143.23;;;20.40;49.20;;;;;;4695149;59;21008;-46
2022/11/27 00:21:49;;;;;;;193.20;141.45;;;20.40;49.20;;;;;;5169427;55;21032;-42
2022/11/27 00:26:49;;;;;;;195.15;138.68;;;20.40;49.20;;;;;;5068091;55;21470;-43
2022/11/27 00:31:50;;;;;;;198.20;144.52;;;20.40;49.50;;;;;;4847433;55;21075;-39
2022/11/27 00:36:51;;;;;;;198.07;142.55;;;20.40;49.30;;;;;;4748263;55;21037;-40
2022/11/27 00:41:52;;;;;;;187.37;134.68;;;20.40;49.20;;;;;;4844512;55;21032;-40
2022/11/27 00:46:53;;;;;;;196.93;141.57;;;20.40;49.30;;;;;;4695359;59;21008;-46
2022/11/27 00:51:54;;;;;;;199.15;144.93;;;20.40;49.30;;;;;;4806815;55;21028;-34
2022/11/27 00:56:54;;;;;;;198.52;145.65;;;20.40;49.30;;;;;;4714266;55;21447;-34
2022/11/27 01:01:55;;;;;;;198.38;144.00;;;20.40;49.30;;;;;;4744336;55;21032;-41
2022/11/27 01:06:56;;;;;;;195.32;141.62;;;20.40;49.30;;;;;;4741906;55;21091;-37
2022/11/27 01:11:57;;;;;;;196.93;142.18;;;20.40;49.20;;;;;;4973655;55;21100;-36
2022/11/27 01:16:58;;;;;;;193.87;143.25;;;20.40;49.30;;;;;;4886967;55;20988;-39
2022/11/27 01:21:59;;;;;;;200.23;145.55;;;20.40;49.20;;;;;;4817616;55;21084;-36
2022/11/27 01:27:00;;;;;;;195.75;139.88;;;20.40;49.20;;;;;;4741064;55;21004;-38
2022/11/27 01:32:00;;;;;;;197.18;144.60;;;20.40;49.30;;;;;;4736222;55;20992;-33
2022/11/27 01:37:01;;;;;;;197.98;143.02;;;20.40;49.30;;;;;;4778563;55;21008;-38
2022/11/27 01:42:02;;;;;;;193.37;141.50;;;20.40;49.20;;;;;;4812346;55;21494;-35
2022/11/27 01:47:14;;;;;;;195.93;141.93;;;20.40;49.30;;;;;;4815647;55;21000;-42
2022/11/27 01:52:20;;;;;;;193.13;138.10;;;20.40;49.30;;;;;;5012809;55;21091;-42
2022/11/27 01:57:25;;;;;;;191.32;139.75;;;20.40;49.30;;;;;;4698579;55;21016;-39
2022/11/27 02:02:27;;;;;;;196.43;142.27;;;20.40;49.20;;;;;;5169902;55;21088;-39
2022/11/27 02:07:28;;;;;;;193.13;139.82;;;20.40;49.80;;;;;;5170047;55;21012;-31
2022/11/27 02:14:09;;;;;;;200.02;143.65;;;20.40;49.20;;;;;;4695324;59;20988;-34
2022/11/27 02:19:42;;;;;;;198.70;142.57;;;20.40;49.30;;;;;;4949965;55;20996;-37
2022/11/27 02:25:09;;;;;;;197.02;140.57;;;20.40;49.20;;;;;;4849145;55;21016;-36
2022/11/27 02:30:10;;;;;;;;;;;20.40;49.20;;;;;;5027941;55;21048;-35
2022/11/27 02:35:25;;;;;;;197.25;139.45;;;20.40;49.30;;;;;;4695289;55;20070;-39
2022/11/27 02:42:00;;;;;;;188.87;139.30;;;20.40;49.30;;;;;;4711253;55;21068;-47
2022/11/27 02:47:03;;;;;;;196.55;141.35;;;20.40;49.20;;;;;;4844345;55;21004;-31
2022/11/27 02:52:05;;;;;;;194.82;140.85;;;20.40;49.20;;;;;;4793416;55;21037;-31
2022/11/27 02:57:08;;;;;;;190.73;137.12;;;20.40;49.20;;;;;;4789989;55;20995;-34
2022/11/27 03:02:15;;;;;;;191.48;139.50;;;20.40;49.20;;;;;;4913020;55;21032;-31
2022/11/27 03:07:41;;;;;;;188.52;139.12;;;20.40;49.20;;;;;;4720871;55;21055;-38
2022/11/27 03:12:42;;;;;;;192.73;137.02;;;20.40;49.20;;;;;;4815510;55;21083;-39
2022/11/27 03:17:56;;;;;;;196.55;141.65;;;20.40;49.20;;;;;;4843910;55;21016;-29
2022/11/27 03:22:57;;;;;;;190.18;139.45;;;20.40;49.20;;;;;;4831086;55;20996;-42
2022/11/27 03:28:02;;;;;;;193.80;141.57;;;20.40;49.20;;;;;;4698511;55;21028;-43
2022/11/27 03:33:03;;;;;;;189.95;141.15;;;20.40;49.20;;;;;;4799633;55;20992;-44
2022/11/27 03:38:04;;;;;;;199.07;144.15;;;20.40;49.20;;;;;;4841464;55;21008;-39
2022/11/27 03:43:17;;;;;;;189.62;139.35;;;20.40;49.30;;;;;;4886981;55;21023;-37
2022/11/27 03:50:10;;;;;;;190.07;138.37;;;20.40;49.20;;;;;;4787606;55;21000;-37
2022/11/27 03:55:20;;;;;;;194.55;139.90;;;20.40;49.20;;;;;;4910487;55;21084;-41
2022/11/27 04:00:21;;;;;;;185.63;138.07;;;20.40;49.20;;;;;;4720344;55;21009;-34
2022/11/27 04:05:22;;;;;;;189.27;135.35;;;20.40;49.20;;;;;;4716615;55;21514;-32
2022/11/27 04:10:23;;;;;;;192.20;138.62;;;20.40;49.20;;;;;;4874374;55;21015;-33
2022/11/27 04:15:24;;;;;;;193.98;140.43;;;20.30;49.20;;;;;;4873087;55;21016;-31
2022/11/27 04:20:24;;;;;;;187.93;136.90;;;20.40;49.20;;;;;;4709618;55;21000;-45
2022/11/27 04:25:26;;;;;;;189.80;139.85;;;20.30;49.20;;;;;;4725110;55;21621;-47
2022/11/27 04:30:27;;;;;;;188.48;137.70;;;20.30;49.10;;;;;;4695317;59;21076;-36
2022/11/27 04:35:29;;;;;;;181.30;133.43;;;20.40;49.20;;;;;;4747720;55;21111;-29
2022/11/27 04:40:30;;;;;;;187.95;135.23;;;20.40;49.20;;;;;;4695259;55;21021;-34
2022/11/27 04:45:30;;;;;;;187.57;137.18;;;20.30;49.10;;;;;;4751349;55;21091;-36
2022/11/27 04:50:31;;;;;;;189.10;137.15;;;20.40;49.90;;;;;;4940619;55;21016;-32
2022/11/27 04:55:33;;;;;;;188.55;135.05;;;20.40;49.20;;;;;;4717432;55;21024;-34
2022/11/27 05:00:34;;;;;;;187.52;136.20;;;20.40;49.20;;;;;;4983707;55;21032;-31
2022/11/27 05:05:35;;;;;;;182.27;134.35;;;20.40;49.20;;;;;;4918947;55;21027;-42
2022/11/27 05:10:35;;;;;;;181.80;132.05;;;20.30;49.10;;;;;;4806115;55;20992;-39
2022/11/27 05:15:36;;;;;;;180.25;133.52;;;20.40;49.20;;;;;;5091092;55;21131;-33
2022/11/27 05:20:37;;;;;;;188.65;134.75;;;20.30;49.10;;;;;;4694917;59;20996;-29
2022/11/27 05:25:38;;;;;;;182.10;134.12;;;20.30;49.20;;;;;;5012462;55;21056;-41
2022/11/27 05:30:39;;;;;;;186.20;132.77;;;20.30;49.10;;;;;;4695230;59;21048;-32
2022/11/27 05:35:39;;;;;;;180.12;132.18;;;20.30;49.40;;;;;;4816023;55;21068;-38
2022/11/27 05:40:40;;;;;;;177.45;130.10;;;20.40;49.20;;;;;;4789211;55;21053;-40
2022/11/27 05:45:41;;;;;;;186.52;134.10;;;20.40;49.80;;;;;;4694109;59;21490;-39
2022/11/27 05:50:42;;;;;;;185.35;133.37;;;20.40;49.20;;;;;;4695245;59;21031;-42
2022/11/27 05:55:43;;;;;;;178.85;131.98;;;20.30;49.10;;;;;;5059580;55;21059;-36
2022/11/27 06:00:44;;;;;;;184.87;131.85;;;20.40;49.10;;;;;;4831510;55;21080;-35
2022/11/27 06:05:45;;;;;;;181.73;133.60;;;20.30;49.10;;;;;;4934323;55;21040;-35
2022/11/27 06:10:47;;;;;;;181.43;131.30;;;20.30;49.10;;;;;;4980999;55;21016;-43
2022/11/27 06:15:47;;;;;;;174.02;129.73;;;20.30;49.10;;;;;;4695153;59;21087;-43
2022/11/27 06:20:48;;;;;;;180.50;130.68;;;20.30;49.10;;;;;;4935418;55;21071;-46
2022/11/27 06:25:49;;;;;;;175.82;127.25;;;20.30;49.10;;;;;;4792037;55;21087;-37
2022/11/27 06:30:50;;;;;;;174.95;129.32;;;20.30;49.10;;;;;;4758579;55;21470;-40
2022/11/27 06:35:53;;;;;;;169.93;127.38;;;20.40;49.30;;;;;;4912177;55;21020;-36
2022/11/27 06:40:54;;;;;;;171.20;128.62;;;20.40;49.30;;;;;;4834492;55;21068;-43
2022/11/27 06:45:57;;;;;;;175.60;127.62;;;20.30;49.20;;;;;;4694222;59;21063;-47
2022/11/27 06:51:02;;;;;;;170.95;125.97;;;20.30;49.20;;;;;;4694966;59;21581;-37
2022/11/27 06:56:05;;;;;;;176.00;128.05;;;20.30;49.20;;;;;;4695001;59;21079;-37
2022/11/27 07:01:09;;;;;;;174.25;127.72;;;20.30;49.20;;;;;;4756047;55;21024;-35
2022/11/27 07:06:13;;;;;;;173.57;127.20;;;20.30;49.20;;;;;;4888211;55;21111;-27
2022/11/27 07:11:18;;;;;;;174.15;127.97;;;20.30;49.20;;;;;;4836603;55;21498;-37
2022/11/27 07:16:18;;;;;;;170.95;128.02;;;20.30;49.20;;;;;;4695120;55;21063;-30
2022/11/27 07:21:20;;;;;;;166.55;125.50;;;20.30;49.20;;;;;;4695321;55;20995;-35
2022/11/27 07:26:23;;;;;;;168.80;127.55;;;20.30;49.20;;;;;;4951009;55;20988;-29
2022/11/27 07:31:27;;;;;;;172.20;128.80;;;20.30;49.20;;;;;;4988177;55;21056;-33
2022/11/27 07:36:29;;;;;;;170.65;126.43;;;20.30;49.10;;;;;;4807888;55;21017;-41
2022/11/27 07:41:30;;;;;;;174.95;128.73;;;20.30;49.20;;;;;;4735792;55;21024;-43
2022/11/27 07:46:31;;;;;;;167.32;127.05;;;20.30;49.20;;;;;;4750815;55;20996;-43
2022/11/27 07:51:32;;;;;;;165.12;124.03;;;20.30;49.20;;;;;;4823416;55;21043;-34
2022/11/27 07:56:33;;;;;;;173.23;128.18;;;20.30;49.20;;;;;;4752520;55;21115;-39
2022/11/27 08:01:33;;;;;;;171.50;127.45;;;20.30;49.20;;;;;;4694872;56;21087;-32
2022/11/27 08:06:34;;;;;;;170.55;126.07;;;20.30;49.10;;;;;;4695314;59;21063;-33
2022/11/27 08:11:35;;;;;;;165.25;123.53;;;20.30;49.20;;;;;;4695413;59;21008;-37
2022/11/27 08:16:36;;;;;;;172.52;128.82;;;20.30;49.20;;;;;;4759046;55;21016;-34
2022/11/27 08:21:36;;;;;;;172.32;127.45;;;20.40;49.30;;;;;;4694916;59;21036;-42
2022/11/27 08:26:38;;;;;;;163.87;124.72;;;20.30;49.20;;;;;;4695164;59;21064;-39
2022/11/27 08:31:39;;;;;;;167.95;125.53;;;20.30;49.20;;;;;;4770240;55;21020;-43
2022/11/27 08:36:39;;;;;;;174.25;128.70;;;20.30;49.20;;;;;;5006257;55;21032;-35
2022/11/27 08:41:40;;;;;;;166.00;125.25;;;20.30;49.20;;;;;;4846424;55;21027;-39
2022/11/27 08:46:42;;;;;;;170.68;129.00;;;20.30;49.20;;;;;;4925178;55;21008;-33
2022/11/27 08:51:43;;;;;;;167.75;127.00;;;20.30;49.20;;;;;;4717648;55;21089;-29
2022/11/27 08:56:44;;;;;;;168.77;129.95;;;20.30;49.30;;;;;;4973518;55;21007;-31
2022/11/27 09:01:45;;;;;;;170.20;128.52;;;20.30;49.50;;;;;;4755358;55;21069;-30
2022/11/27 09:06:47;;;;;;;170.55;126.82;;;20.30;49.30;;;;;;4695072;59;21016;-29
2022/11/27 09:11:48;;;;;;;172.15;128.75;;;20.30;49.30;;;;;;4790059;55;21605;-32
2022/11/27 09:16:49;;;;;;;166.60;125.93;;;20.30;49.30;;;;;;4694980;59;21020;-41
2022/11/27 09:21:50;;;;;;;174.32;129.73;;;20.30;49.30;;;;;;4694965;59;21036;-35
2022/11/27 09:26:51;;;;;;;178.15;133.32;;;20.30;49.40;;;;;;4695047;59;21051;-28
2022/11/27 09:31:51;;;;;;;172.57;127.60;;;20.30;49.60;;;;;;4951128;55;21486;-29
2022/11/27 09:36:52;;;;;;;178.68;133.25;;;20.30;49.30;;;;;;4694724;59;21024;-39
2022/11/27 09:42:03;;;;;;;177.15;132.75;;;20.30;49.30;;;;;;4730210;55;21501;-44
2022/11/27 09:47:21;;;;;;;180.23;134.18;;;20.30;49.30;;;;;;4695263;59;20992;-41
2022/11/27 09:55:13;;;;;;;178.50;133.12;;;20.30;49.30;;;;;;4890580;55;21100;-29
2022/11/27 10:00:17;;;;;;;173.13;129.07;;;20.30;49.30;;;;;;4798707;55;21131;-41
2022/11/27 10:05:24;;;;;;;186.93;136.12;;;20.30;49.30;;;;;;4771114;55;21014;-33
2022/11/27 10:11:07;;;;;;;181.48;135.63;;;20.30;49.40;;;;;;4732552;55;20993;-47
2022/11/27 10:18:45;;;;;;;181.00;136.27;;;20.30;49.40;;;;;;5071893;55;21123;-37
2022/11/27 10:24:17;;;;;;;185.40;140.32;;;20.30;49.40;;;;;;4838530;55;21581;-30
2022/11/27 10:29:42;;;;;;;183.82;138.18;;;20.30;49.40;;;;;;4723612;55;21000;-39
2022/11/27 10:34:56;;;;;;;186.98;141.50;;;20.30;49.40;;;;;;4745411;55;21063;-30
2022/11/27 10:40:38;;;;;;;188.55;142.10;;;20.30;49.50;;;;;;4695279;59;21004;-39
2022/11/27 10:52:32;;;;;;;197.13;143.25;;;20.30;49.50;;;;;;4696129;55;21011;-39
2022/11/27 10:57:55;;;;;;;196.47;141.57;;;20.30;49.50;;;;;;4938652;55;21012;-43
2022/11/27 11:03:00;;;;;;;191.90;142.80;;;20.30;49.60;;;;;;4838285;55;21008;-32
2022/11/27 11:08:17;;;;;;;196.70;146.52;;;20.30;49.60;;;;;;4792942;55;21105;-35
2022/11/27 11:13:27;;;;;;;195.37;144.63;;;20.30;49.60;;;;;;4779228;55;21012;-37
2022/11/27 11:18:45;;;;;;;197.55;144.48;;;20.30;49.60;;;;;;4962012;55;21062;-43
2022/11/27 11:23:56;;;;;;;195.52;147.18;;;20.30;49.70;;;;;;4776180;55;21554;-46
2022/11/27 11:29:00;;;;;;;196.00;145.55;;;20.30;49.70;;;;;;4819789;55;21004;-44
2022/11/27 11:34:25;;;;;;;201.77;152.05;;;20.30;49.70;;;;;;4717079;55;21052;-42
2022/11/27 11:39:29;;;;;;;193.27;144.70;;;20.30;49.70;;;;;;4841420;55;21016;-42
2022/11/27 11:44:37;;;;;;;205.12;150.98;;;20.30;49.70;;;;;;4695090;56;21079;-37
2022/11/27 11:49:38;;;;;;;201.37;149.87;;;20.30;49.70;;;;;;4695516;56;20988;-33
2022/11/27 11:55:09;;;;;;;201.82;149.45;;;20.30;49.70;;;;;;4707970;55;21068;-34
2022/11/27 12:00:17;;;;;;;205.90;151.12;;;20.30;49.70;;;;;;4846967;55;21008;-34
2022/11/27 12:05:57;;;;;;;202.38;151.57;;;20.30;49.70;;;;;;4966790;55;21016;-34
2022/11/27 12:13:12;;;;;;;213.57;161.35;;;20.30;49.70;;;;;;4725032;55;21008;-30
2022/11/27 12:18:24;;;;;;;208.10;154.13;;;20.30;49.70;;;;;;4811115;55;21063;-32
2022/11/27 12:23:44;;;;;;;205.90;151.70;;;20.30;49.80;;;;;;4855030;55;21617;-45
2022/11/27 12:32:10;;;;;;;208.80;154.52;;;20.30;49.90;;;;;;4728812;55;20995;-47
2022/11/27 12:39:02;;;;;;;210.43;158.35;;;20.30;49.90;;;;;;5070746;55;21004;-39
2022/11/27 12:44:14;;;;;;;208.38;156.15;;;20.30;49.90;;;;;;4834566;55;21064;-45
2022/11/27 12:49:33;;;;;;;214.73;162.57;;;20.30;49.90;;;;;;5044973;55;21068;-49
2022/11/27 12:56:19;;;;;;;211.77;157.45;;;20.30;50.00;;;;;;4806660;55;21076;-36
2022/11/27 13:01:45;;;;;;;203.90;153.85;;;20.30;50.00;;;;;;4752086;55;21490;-47
2022/11/27 13:09:49;;;;;;;210.35;159.98;;;20.30;50.00;;;;;;4766036;55;21051;-49
2022/11/27 13:15:00;;;;;;;205.57;153.45;;;20.30;50.10;;;;;;4818030;55;21008;-48
2022/11/27 13:20:03;;;;;;;209.57;157.32;;;20.30;50.10;;;;;;4798660;55;21031;-31
2022/11/27 13:25:04;;;;;;;206.68;158.27;;;20.30;50.10;;;;;;4825134;55;21079;-34
2022/11/27 13:30:20;;;;;;;206.98;157.77;;;20.40;50.20;;;;;;4854777;55;21565;-30
2022/11/27 13:35:42;;;;;;;205.77;153.75;;;20.30;50.10;;;;;;4721068;55;21024;-31
2022/11/27 13:40:46;;;;;;;210.45;158.60;;;20.30;50.10;;;;;;4727264;55;21589;-41
2022/11/27 13:45:47;;;;;;;199.75;153.77;;;20.30;50.20;;;;;;4694205;59;21123;-33
2022/11/27 13:50:48;;;;;;;208.77;156.98;;;20.30;50.20;;;;;;4833880;55;21534;-37
2022/11/27 13:55:55;;;;;;;205.82;154.80;;;20.30;50.20;;;;;;4832136;55;21008;-41
2022/11/27 14:00:56;;;;;;;203.20;152.60;;;20.30;50.20;;;;;;4916165;55;21526;-39
2022/11/27 14:05:57;;;;;;;199.18;152.23;;;20.30;50.20;;;;;;4738945;55;21072;-38
2022/11/27 14:11:11;;;;;;;200.57;153.82;;;20.30;50.20;;;;;;4929327;55;21020;-44
2022/11/27 14:16:37;;;;;;;199.90;151.65;;;20.30;50.20;;;;;;4713254;55;21554;-40
2022/11/27 14:21:41;;;;;;;198.48;152.18;;;20.30;50.30;;;;;;4694820;59;21481;-40
2022/11/27 14:26:42;;;;;;;199.50;149.95;;;20.30;50.30;;;;;;4749619;55;21566;-37
2022/11/27 14:31:43;;;;;;;198.02;149.90;;;20.30;50.40;;;;;;4924512;55;21044;-30
2022/11/27 14:36:44;;;;;;;201.05;150.07;;;20.30;50.30;;;;;;4695095;59;21068;-36
2022/11/27 14:41:58;;;;;;;198.68;151.35;;;20.30;50.30;;;;;;4955698;55;21000;-43
2022/11/27 14:47:07;;;;;;;198.43;147.68;;;20.30;50.30;;;;;;4695121;56;21019;-38
2022/11/27 14:52:16;;;;;;;194.25;149.10;;;20.30;50.30;;;;;;4818512;55;21563;-41
2022/11/27 14:57:22;;;;;;;194.10;150.25;;;20.30;50.30;;;;;;4695016;59;21026;-44
2022/11/27 15:02:25;;;;;;;194.67;147.97;;;20.30;50.40;;;;;;4794869;55;21023;-36
2022/11/27 15:07:28;;;;;;;191.25;147.50;;;20.30;50.40;;;;;;4695236;55;21024;-34
2022/11/27 15:12:32;;;;;;;186.75;141.73;;;20.30;50.40;;;;;;4705901;55;21474;-36
2022/11/27 15:17:36;;;;;;;190.50;143.98;;;20.30;50.40;;;;;;5111237;55;21087;-30
2022/11/27 15:22:37;;;;;;;191.00;147.10;;;20.40;50.40;;;;;;4694889;59;21076;-41
2022/11/27 15:27:46;;;;;;;186.50;146.65;;;20.30;50.40;;;;;;4795081;55;21027;-49
2022/11/27 15:32:52;;;;;;;189.50;146.77;;;20.30;50.40;;;;;;4819672;55;21103;-41
2022/11/27 15:37:56;;;;;;;190.82;145.82;;;20.30;50.40;;;;;;4694629;59;21470;-39
2022/11/27 15:42:57;;;;;;;187.10;145.40;;;20.30;50.40;;;;;;4738569;55;21522;-36
2022/11/27 15:47:59;;;;;;;185.93;142.82;;;20.30;50.40;;;;;;4695192;59;20997;-40
2022/11/27 15:53:00;;;;;;;180.35;140.98;;;20.30;50.40;;;;;;4857882;55;21028;-40
2022/11/27 15:58:01;;;;;;;186.12;142.32;;;20.30;50.40;;;;;;4855982;55;21016;-42
2022/11/27 16:03:02;;;;;;;180.87;142.25;;;20.30;50.40;;;;;;4767169;55;21004;-42
2022/11/27 16:08:04;;;;;;;182.68;141.75;;;20.30;50.50;;;;;;4795155;55;21011;-39
2022/11/27 16:13:05;;;;;;;185.45;143.57;;;20.30;50.40;;;;;;4864407;55;21458;-35
2022/11/27 16:18:06;;;;;;;182.45;142.73;;;20.30;50.50;;;;;;4694786;57;21024;-26
2022/11/27 16:23:06;;;;;;;178.05;140.80;;;20.30;50.40;;;;;;4694775;59;21542;-34
2022/11/27 16:28:07;;;;;;;187.62;143.85;;;20.30;50.40;;;;;;4882106;55;21063;-35
2022/11/27 16:33:08;;;;;;;191.50;143.23;;;20.30;50.40;;;;;;5039977;55;20988;-38
2022/11/27 16:38:09;;;;;;;180.37;140.35;;;20.30;50.40;;;;;;4774304;55;21510;-35
2022/11/27 16:43:10;;;;;;;186.15;144.37;;;20.30;50.50;;;;;;4895059;55;21080;-38
2022/11/27 16:48:11;;;;;;;180.10;139.80;;;20.30;50.40;;;;;;4825371;55;21000;-30
2022/11/27 16:53:11;;;;;;;177.48;138.05;;;20.30;50.40;;;;;;4908734;55;21087;-31
2022/11/27 16:58:12;;;;;;;178.10;138.48;;;20.30;50.40;;;;;;4821592;55;21008;-49
2022/11/27 17:03:13;;;;;;;182.90;141.30;;;20.30;50.30;;;;;;4936783;55;21526;-48
2022/11/27 17:08:14;;;;;;;178.70;137.60;;;20.30;50.30;;;;;;4727967;55;21458;-36
2022/11/27 17:13:14;;;;;;;185.90;143.23;;;20.30;50.30;;;;;;4694294;56;21123;-36
2022/11/27 17:18:15;;;;;;;181.05;141.25;;;20.30;50.40;;;;;;4980486;55;21028;-43
2022/11/27 17:23:16;;;;;;;181.00;138.93;;;20.30;50.40;;;;;;4820674;55;21048;-30
2022/11/27 17:28:17;;;;;;;178.77;140.57;;;20.30;50.40;;;;;;4756439;55;21020;-39
2022/11/27 17:33:18;;;;;;;183.18;142.20;;;20.30;50.30;;;;;;4952802;55;21001;-29
2022/11/27 17:38:18;;;;;;;181.73;140.27;;;20.30;50.30;;;;;;5054845;55;21079;-42
2022/11/27 17:43:20;;;;;;;183.60;139.68;;;20.30;50.20;;;;;;4694883;59;21059;-39
2022/11/27 17:48:23;;;;;;;179.60;140.85;;;20.30;50.20;;;;;;4918579;55;21534;-32
2022/11/27 17:53:24;;;;;;;178.25;137.00;;;20.30;50.20;;;;;;4698137;55;21044;-29
2022/11/27 17:58:24;;;;;;;181.48;140.70;;;20.30;50.30;;;;;;4781545;55;20996;-31
2022/11/27 18:03:27;;;;;;;185.68;140.35;;;20.30;50.20;;;;;;4756709;55;21344;-32
2022/11/27 18:08:29;;;;;;;178.70;137.45;;;20.30;50.20;;;;;;5169844;55;21051;-39
2022/11/27 18:13:31;;;;;;;180.60;140.75;;;20.30;50.20;;;;;;5123819;55;21131;-35
2022/11/27 18:18:32;;;;;;;174.95;134.73;;;20.30;50.20;;;;;;4970872;55;21079;-37
2022/11/27 18:23:33;;;;;;;185.90;144.65;;;20.30;50.20;;;;;;5000331;55;21008;-47
2022/11/27 18:28:34;;;;;;;180.73;139.57;;;20.30;50.20;;;;;;4862399;55;21012;-41
2022/11/27 18:33:36;;;;;;;181.68;142.27;;;20.30;50.10;;;;;;4695150;59;20972;-38
2022/11/27 18:38:38;;;;;;;183.18;140.62;;;20.30;50.10;;;;;;4789109;55;21016;-46
2022/11/27 18:43:40;;;;;;;177.27;136.10;;;20.30;50.10;;;;;;5021789;55;21016;-40
2022/11/27 18:48:42;;;;;;;176.48;136.55;;;20.30;50.10;;;;;;4869218;55;21020;-32
2022/11/27 18:53:44;;;;;;;177.48;136.10;;;20.30;50.10;;;;;;5121714;55;21621;-40
2022/11/27 18:58:45;;;;;;;177.68;135.20;;;20.30;50.10;;;;;;4859692;55;21087;-42
2022/11/27 19:03:47;;;;;;;181.93;141.30;;;20.30;50.10;;;;;;4734029;55;21047;-43
2022/11/27 19:08:48;;;;;;;180.77;139.10;;;20.30;50.10;;;;;;4765833;55;21068;-35
2022/11/27 19:13:50;;;;;;;179.05;137.88;;;20.30;50.00;;;;;;4738514;55;21011;-34
2022/11/27 19:18:51;;;;;;;178.65;134.80;;;20.30;50.00;;;;;;4695267;59;21016;-35
2022/11/27 19:23:53;;;;;;;181.77;137.18;;;20.30;50.00;;;;;;4694712;59;21016;-31
2022/11/27 19:28:56;;;;;;;183.20;139.93;;;20.30;50.00;;;;;;4794577;55;21087;-40
2022/11/27 19:33:59;;;;;;;176.07;137.10;;;20.30;50.00;;;;;;4867934;55;21059;-38
2022/11/27 19:39:20;;;;;;;180.25;137.98;;;20.30;50.00;;;;;;4800769;55;20996;-39
2022/11/27 19:44:21;;;;;;;176.18;137.00;;;20.30;50.10;;;;;;5019603;55;21021;-38
2022/11/27 19:49:22;;;;;;;181.35;137.65;;;20.30;50.00;;;;;;4786585;55;21081;-35
2022/11/27 19:54:23;;;;;;;179.75;136.93;;;20.30;50.00;;;;;;4707126;55;21084;-41
2022/11/27 19:59:25;;;;;;;182.20;137.95;;;20.30;49.90;;;;;;4737880;55;21016;-32
2022/11/27 20:04:26;;;;;;;180.85;138.85;;;20.30;50.00;;;;;;4775651;55;21577;-39
2022/11/27 20:09:27;;;;;;;181.05;138.62;;;20.30;50.00;;;;;;4725481;55;21043;-43
2022/11/27 20:14:28;;;;;;;178.30;136.52;;;20.30;50.00;;;;;;4770035;55;21000;-32
2022/11/27 20:19:29;;;;;;;182.40;139.25;;;20.30;50.00;;;;;;4808593;55;21546;-38
2022/11/27 20:24:30;;;;;;;177.68;137.77;;;20.30;50.00;;;;;;4762386;55;21071;-47
2022/11/27 20:29:31;;;;;;;181.25;140.00;;;20.30;49.90;;;;;;4695333;59;21076;-34
2022/11/27 20:34:31;;;;;;;183.60;139.43;;;20.30;49.90;;;;;;4800172;55;21550;-37
2022/11/27 20:39:33;;;;;;;179.48;139.50;;;20.30;49.90;;;;;;4840446;55;21148;-35
2022/11/27 20:44:34;;;;;;;184.13;140.02;;;20.30;49.80;;;;;;4694363;59;21499;-41
2022/11/27 20:49:36;;;;;;;180.40;135.93;;;20.30;49.90;;;;;;4703078;55;21053;-37
2022/11/27 20:54:37;;;;;;;184.05;139.40;;;20.30;49.80;;;;;;5004049;55;21011;-37
2022/11/27 20:59:38;;;;;;;179.30;138.65;;;20.30;49.90;;;;;;4696514;55;21064;-35
2022/11/27 21:04:39;;;;;;;177.70;136.95;;;20.30;49.80;;;;;;4863964;55;21064;-41
2022/11/27 21:09:40;;;;;;;186.52;141.45;;;20.30;49.80;;;;;;4948765;55;21028;-36
2022/11/27 21:14:43;;;;;;;190.43;142.43;;;20.30;49.80;;;;;;4695580;59;21477;-33
2022/11/27 21:19:43;;;;;;;185.23;139.60;;;20.30;49.80;;;;;;4714551;55;20996;-30
2022/11/27 21:24:44;;;;;;;182.18;139.02;;;20.30;49.80;;;;;;4721618;55;21566;-41
2022/11/27 21:29:45;;;;;;;185.25;138.73;;;20.30;49.80;;;;;;4786426;55;20996;-30
2022/11/27 21:34:46;;;;;;;180.85;137.62;;;20.30;49.70;;;;;;4758126;55;21020;-33
2022/11/27 21:39:47;;;;;;;181.87;138.52;;;20.30;49.70;;;;;;4732554;55;21068;-44
2022/11/27 21:44:47;;;;;;;186.65;140.73;;;20.30;49.80;;;;;;4801155;55;21008;-34
2022/11/27 21:49:49;;;;;;;185.27;142.70;;;20.20;49.70;;;;;;5009628;55;22169;-38
2022/11/27 21:54:49;;;;;;;187.73;142.07;;;20.20;49.70;;;;;;4910612;55;21494;-45
2022/11/27 21:59:50;;;;;;;186.00;139.10;;;20.20;49.70;;;;;;4745466;55;21019;-39
2022/11/27 22:04:51;;;;;;;185.75;139.35;;;20.20;49.70;;;;;;4812768;55;21027;-29
2022/11/27 22:09:52;;;;;;;182.60;142.00;;;20.20;49.70;;;;;;4695263;59;21051;-34
2022/11/27 22:14:53;;;;;;;184.37;140.00;;;20.30;49.70;;;;;;4695119;59;21016;-32
2022/11/27 22:19:53;;;;;;;185.80;142.37;;;20.30;49.70;;;;;;4856641;55;21466;-30
2022/11/27 22:24:54;;;;;;;179.30;135.88;;;20.20;49.70;;;;;;4694639;59;21023;-44
2022/11/27 22:29:55;;;;;;;183.93;141.55;;;20.30;49.70;;;;;;4746072;55;21486;-35
2022/11/27 22:34:56;;;;;;;181.57;137.88;;;20.20;49.70;;;;;;4814434;55;21477;-34
2022/11/27 22:39:57;;;;;;;169.70;131.55;;;20.30;49.80;;;;;;4694890;59;21067;-31
2022/11/27 22:44:57;;;;;;;181.10;137.98;;;20.20;49.70;;;;;;4754795;55;21084;-33
2022/11/27 22:49:58;;;;;;;175.95;133.75;;;20.20;49.70;;;;;;4694824;59;21586;-30
2022/11/27 22:54:59;;;;;;;177.60;135.90;;;20.20;49.70;;;;;;4694840;59;21031;-33
2022/11/27 23:00:00;;;;;;;180.68;136.62;;;20.20;49.70;;;;;;4713291;55;21462;-39
2022/11/27 23:05:00;;;;;;;170.50;133.57;;;20.20;49.70;;;;;;5097508;55;21067;-32
2022/11/27 23:10:01;;;;;;;171.87;131.18;;;20.20;49.70;;;;;;4695166;59;21100;-33
2022/11/27 23:15:03;;;;;;;170.95;131.82;;;20.20;49.70;;;;;;5005596;55;21031;-46
2022/11/27 23:20:05;;;;;;;173.50;132.25;;;20.20;49.70;;;;;;4856535;55;21606;-28
2022/11/27 23:25:07;;;;;;;177.93;132.90;;;20.20;49.70;;;;;;4851538;55;21064;-30
2022/11/27 23:30:09;;;;;;;168.57;131.37;;;20.20;49.70;;;;;;5055808;55;21628;-46
2022/11/27 23:35:10;;;;;;;164.60;127.43;;;20.20;49.70;;;;;;4987897;55;21039;-37
2022/11/27 23:40:11;;;;;;;171.10;130.82;;;20.20;49.70;;;;;;4876029;55;21550;-31
2022/11/27 23:45:12;;;;;;;170.62;130.82;;;20.20;49.60;;;;;;4873327;55;21143;-36
2022/11/27 23:50:13;;;;;;;162.40;126.03;;;20.20;49.70;;;;;;4761925;55;21036;-30
2022/11/27 23:55:14;;;;;;;161.90;125.45;;;20.20;49.70;;;;;;4928068;55;21004;-30
